sensor_id;sensor_type;location;lat;lon;timestamp;P1;durP1;ratioP1;P2;durP2;ratioP2
67162;SDS011;54092;53.088;8.850;2023-05-07T00:00:32;19.92;;;10.90;;
67162;SDS011;54092;53.088;8.850;2023-05-07T00:02:59;19.95;;;11.55;;
67162;SDS011;54092;53.088;8.850;2023-05-07T00:05:24;18.55;;;10.45;;
67162;SDS011;54092;53.088;8.850;2023-05-07T00:07:50;21.92;;;11.32;;
67162;SDS011;54092;53.088;8.850;2023-05-07T00:10:17;23.63;;;11.32;;
67162;SDS011;54092;53.088;8.850;2023-05-07T00:12:43;20.85;;;11.63;;
67162;SDS011;54092;53.088;8.850;2023-05-07T00:15:09;20.77;;;11.73;;
67162;SDS011;54092;53.088;8.850;2023-05-07T00:17:35;20.58;;;11.05;;
67162;SDS011;54092;53.088;8.850;2023-05-07T00:20:02;21.45;;;11.23;;
67162;SDS011;54092;53.088;8.850;2023-05-07T00:22:29;21.00;;;11.00;;
67162;SDS011;54092;53.088;8.850;2023-05-07T00:24:55;18.98;;;11.23;;
67162;SDS011;54092;53.088;8.850;2023-05-07T00:27:21;22.13;;;11.90;;
67162;SDS011;54092;53.088;8.850;2023-05-07T00:29:47;22.30;;;11.55;;
67162;SDS011;54092;53.088;8.850;2023-05-07T00:32:13;23.10;;;11.45;;
67162;SDS011;54092;53.088;8.850;2023-05-07T00:34:38;21.63;;;11.60;;
67162;SDS011;54092;53.088;8.850;2023-05-07T00:37:04;19.83;;;11.48;;
67162;SDS011;54092;53.088;8.850;2023-05-07T00:39:32;23.20;;;11.73;;
67162;SDS011;54092;53.088;8.850;2023-05-07T00:41:58;19.25;;;10.98;;
67162;SDS011;54092;53.088;8.850;2023-05-07T00:44:25;20.15;;;11.13;;
67162;SDS011;54092;53.088;8.850;2023-05-07T00:46:51;23.20;;;11.18;;
67162;SDS011;54092;53.088;8.850;2023-05-07T00:49:17;20.42;;;11.50;;
67162;SDS011;54092;53.088;8.850;2023-05-07T00:51:43;24.42;;;11.88;;
67162;SDS011;54092;53.088;8.850;2023-05-07T00:54:10;20.63;;;11.13;;
67162;SDS011;54092;53.088;8.850;2023-05-07T00:56:36;19.83;;;11.20;;
67162;SDS011;54092;53.088;8.850;2023-05-07T00:59:02;20.33;;;11.70;;
67162;SDS011;54092;53.088;8.850;2023-05-07T01:01:28;20.85;;;11.63;;
67162;SDS011;54092;53.088;8.850;2023-05-07T01:03:54;23.10;;;12.30;;
67162;SDS011;54092;53.088;8.850;2023-05-07T01:06:20;21.92;;;12.05;;
67162;SDS011;54092;53.088;8.850;2023-05-07T01:08:47;23.17;;;12.43;;
67162;SDS011;54092;53.088;8.850;2023-05-07T01:11:15;21.58;;;11.93;;
67162;SDS011;54092;53.088;8.850;2023-05-07T01:13:41;22.63;;;12.60;;
67162;SDS011;54092;53.088;8.850;2023-05-07T01:16:08;24.65;;;12.32;;
67162;SDS011;54092;53.088;8.850;2023-05-07T01:18:34;21.52;;;11.95;;
67162;SDS011;54092;53.088;8.850;2023-05-07T01:21:00;19.63;;;11.32;;
67162;SDS011;54092;53.088;8.850;2023-05-07T01:23:28;22.55;;;11.75;;
67162;SDS011;54092;53.088;8.850;2023-05-07T01:25:55;22.30;;;11.65;;
67162;SDS011;54092;53.088;8.850;2023-05-07T01:28:21;24.77;;;12.50;;
67162;SDS011;54092;53.088;8.850;2023-05-07T01:30:49;23.52;;;12.07;;
67162;SDS011;54092;53.088;8.850;2023-05-07T01:33:19;20.80;;;11.48;;
67162;SDS011;54092;53.088;8.850;2023-05-07T01:35:50;19.13;;;10.30;;
67162;SDS011;54092;53.088;8.850;2023-05-07T01:38:18;21.40;;;10.85;;
67162;SDS011;54092;53.088;8.850;2023-05-07T01:40:46;20.48;;;10.70;;
67162;SDS011;54092;53.088;8.850;2023-05-07T01:43:12;22.02;;;11.88;;
67162;SDS011;54092;53.088;8.850;2023-05-07T01:45:37;24.13;;;11.70;;
67162;SDS011;54092;53.088;8.850;2023-05-07T01:48:04;20.35;;;11.27;;
67162;SDS011;54092;53.088;8.850;2023-05-07T01:50:30;20.35;;;11.40;;
67162;SDS011;54092;53.088;8.850;2023-05-07T01:52:57;20.20;;;11.27;;
67162;SDS011;54092;53.088;8.850;2023-05-07T01:55:22;21.13;;;11.82;;
67162;SDS011;54092;53.088;8.850;2023-05-07T01:57:48;19.80;;;10.82;;
67162;SDS011;54092;53.088;8.850;2023-05-07T02:00:14;18.52;;;10.80;;
67162;SDS011;54092;53.088;8.850;2023-05-07T02:02:39;19.75;;;10.73;;
67162;SDS011;54092;53.088;8.850;2023-05-07T02:05:05;22.10;;;11.00;;
67162;SDS011;54092;53.088;8.850;2023-05-07T02:07:31;22.77;;;11.93;;
67162;SDS011;54092;53.088;8.850;2023-05-07T02:09:56;17.20;;;9.68;;
67162;SDS011;54092;53.088;8.850;2023-05-07T02:12:22;19.13;;;9.75;;
67162;SDS011;54092;53.088;8.850;2023-05-07T02:14:48;22.50;;;10.40;;
67162;SDS011;54092;53.088;8.850;2023-05-07T02:17:14;22.63;;;10.10;;
67162;SDS011;54092;53.088;8.850;2023-05-07T02:19:40;20.95;;;10.00;;
67162;SDS011;54092;53.088;8.850;2023-05-07T02:22:05;18.40;;;9.95;;
67162;SDS011;54092;53.088;8.850;2023-05-07T02:24:31;20.15;;;9.77;;
67162;SDS011;54092;53.088;8.850;2023-05-07T02:26:57;23.08;;;11.40;;
67162;SDS011;54092;53.088;8.850;2023-05-07T02:29:22;22.95;;;11.20;;
67162;SDS011;54092;53.088;8.850;2023-05-07T02:31:48;21.27;;;10.90;;
67162;SDS011;54092;53.088;8.850;2023-05-07T02:34:15;21.58;;;11.15;;
67162;SDS011;54092;53.088;8.850;2023-05-07T02:36:44;24.38;;;12.15;;
67162;SDS011;54092;53.088;8.850;2023-05-07T02:39:10;20.05;;;11.07;;
67162;SDS011;54092;53.088;8.850;2023-05-07T02:41:37;22.48;;;11.32;;
67162;SDS011;54092;53.088;8.850;2023-05-07T02:44:02;23.45;;;11.50;;
67162;SDS011;54092;53.088;8.850;2023-05-07T02:46:28;24.83;;;11.07;;
67162;SDS011;54092;53.088;8.850;2023-05-07T02:48:53;23.38;;;11.13;;
67162;SDS011;54092;53.088;8.850;2023-05-07T02:51:19;21.73;;;11.88;;
67162;SDS011;54092;53.088;8.850;2023-05-07T02:53:46;21.75;;;11.45;;
67162;SDS011;54092;53.088;8.850;2023-05-07T02:56:12;19.42;;;10.70;;
67162;SDS011;54092;53.088;8.850;2023-05-07T02:58:37;19.23;;;11.05;;
67162;SDS011;54092;53.088;8.850;2023-05-07T03:01:07;18.15;;;9.73;;
67162;SDS011;54092;53.088;8.850;2023-05-07T03:03:33;20.10;;;10.85;;
67162;SDS011;54092;53.088;8.850;2023-05-07T03:05:58;22.08;;;11.13;;
67162;SDS011;54092;53.088;8.850;2023-05-07T03:08:24;21.02;;;10.73;;
67162;SDS011;54092;53.088;8.850;2023-05-07T03:10:50;23.00;;;11.05;;
67162;SDS011;54092;53.088;8.850;2023-05-07T03:13:16;22.30;;;10.57;;
67162;SDS011;54092;53.088;8.850;2023-05-07T03:15:41;20.67;;;10.70;;
67162;SDS011;54092;53.088;8.850;2023-05-07T03:18:07;21.58;;;11.20;;
67162;SDS011;54092;53.088;8.850;2023-05-07T03:20:33;20.23;;;9.98;;
67162;SDS011;54092;53.088;8.850;2023-05-07T03:22:58;20.40;;;10.65;;
67162;SDS011;54092;53.088;8.850;2023-05-07T03:25:24;23.58;;;10.98;;
67162;SDS011;54092;53.088;8.850;2023-05-07T03:27:50;24.08;;;10.85;;
67162;SDS011;54092;53.088;8.850;2023-05-07T03:30:15;21.83;;;11.50;;
67162;SDS011;54092;53.088;8.850;2023-05-07T03:32:41;23.67;;;12.00;;
67162;SDS011;54092;53.088;8.850;2023-05-07T03:35:06;21.80;;;11.30;;
67162;SDS011;54092;53.088;8.850;2023-05-07T03:37:32;22.25;;;10.40;;
67162;SDS011;54092;53.088;8.850;2023-05-07T03:39:58;17.33;;;9.95;;
67162;SDS011;54092;53.088;8.850;2023-05-07T03:42:23;21.02;;;10.48;;
67162;SDS011;54092;53.088;8.850;2023-05-07T03:44:49;21.50;;;9.95;;
67162;SDS011;54092;53.088;8.850;2023-05-07T03:47:14;19.95;;;10.30;;
67162;SDS011;54092;53.088;8.850;2023-05-07T03:49:40;22.15;;;10.80;;
67162;SDS011;54092;53.088;8.850;2023-05-07T03:52:05;18.90;;;10.05;;
67162;SDS011;54092;53.088;8.850;2023-05-07T03:54:31;19.58;;;10.05;;
67162;SDS011;54092;53.088;8.850;2023-05-07T03:56:57;19.27;;;9.52;;
67162;SDS011;54092;53.088;8.850;2023-05-07T03:59:22;18.25;;;9.98;;
67162;SDS011;54092;53.088;8.850;2023-05-07T04:01:48;20.85;;;10.75;;
67162;SDS011;54092;53.088;8.850;2023-05-07T04:04:13;20.83;;;10.30;;
67162;SDS011;54092;53.088;8.850;2023-05-07T04:06:40;18.25;;;9.77;;
67162;SDS011;54092;53.088;8.850;2023-05-07T04:09:06;20.60;;;9.90;;
67162;SDS011;54092;53.088;8.850;2023-05-07T04:11:31;17.42;;;8.18;;
67162;SDS011;54092;53.088;8.850;2023-05-07T04:13:57;19.00;;;9.23;;
67162;SDS011;54092;53.088;8.850;2023-05-07T04:16:22;15.57;;;8.63;;
67162;SDS011;54092;53.088;8.850;2023-05-07T04:18:48;17.02;;;8.82;;
67162;SDS011;54092;53.088;8.850;2023-05-07T04:21:17;16.85;;;8.63;;
67162;SDS011;54092;53.088;8.850;2023-05-07T04:23:43;15.80;;;8.43;;
67162;SDS011;54092;53.088;8.850;2023-05-07T04:26:09;17.75;;;9.05;;
67162;SDS011;54092;53.088;8.850;2023-05-07T04:28:35;15.07;;;7.97;;
67162;SDS011;54092;53.088;8.850;2023-05-07T04:31:01;17.92;;;9.63;;
67162;SDS011;54092;53.088;8.850;2023-05-07T04:33:26;17.08;;;9.73;;
67162;SDS011;54092;53.088;8.850;2023-05-07T04:35:52;18.23;;;9.10;;
67162;SDS011;54092;53.088;8.850;2023-05-07T04:38:17;19.42;;;9.15;;
67162;SDS011;54092;53.088;8.850;2023-05-07T04:40:43;19.60;;;9.40;;
67162;SDS011;54092;53.088;8.850;2023-05-07T04:43:09;17.55;;;9.10;;
67162;SDS011;54092;53.088;8.850;2023-05-07T04:45:35;21.27;;;10.35;;
67162;SDS011;54092;53.088;8.850;2023-05-07T04:48:01;19.25;;;9.15;;
67162;SDS011;54092;53.088;8.850;2023-05-07T04:50:27;17.98;;;8.70;;
67162;SDS011;54092;53.088;8.850;2023-05-07T04:52:52;19.55;;;9.35;;
67162;SDS011;54092;53.088;8.850;2023-05-07T04:55:18;15.30;;;8.27;;
67162;SDS011;54092;53.088;8.850;2023-05-07T04:57:43;15.40;;;8.40;;
67162;SDS011;54092;53.088;8.850;2023-05-07T05:00:10;16.10;;;7.40;;
67162;SDS011;54092;53.088;8.850;2023-05-07T05:02:39;14.82;;;8.10;;
67162;SDS011;54092;53.088;8.850;2023-05-07T05:05:04;13.32;;;7.40;;
67162;SDS011;54092;53.088;8.850;2023-05-07T05:07:30;16.48;;;8.20;;
67162;SDS011;54092;53.088;8.850;2023-05-07T05:09:56;16.05;;;8.55;;
67162;SDS011;54092;53.088;8.850;2023-05-07T05:12:22;14.90;;;7.80;;
67162;SDS011;54092;53.088;8.850;2023-05-07T05:14:48;19.95;;;8.48;;
67162;SDS011;54092;53.088;8.850;2023-05-07T05:17:13;15.25;;;7.45;;
67162;SDS011;54092;53.088;8.850;2023-05-07T05:19:39;18.23;;;8.75;;
67162;SDS011;54092;53.088;8.850;2023-05-07T05:22:04;15.80;;;8.15;;
67162;SDS011;54092;53.088;8.850;2023-05-07T05:24:30;16.33;;;8.93;;
67162;SDS011;54092;53.088;8.850;2023-05-07T05:26:56;13.52;;;7.60;;
67162;SDS011;54092;53.088;8.850;2023-05-07T05:29:22;15.32;;;8.60;;
67162;SDS011;54092;53.088;8.850;2023-05-07T05:31:47;16.45;;;7.93;;
67162;SDS011;54092;53.088;8.850;2023-05-07T05:34:13;15.50;;;8.27;;
67162;SDS011;54092;53.088;8.850;2023-05-07T05:36:38;15.13;;;8.15;;
67162;SDS011;54092;53.088;8.850;2023-05-07T05:39:04;13.05;;;7.57;;
67162;SDS011;54092;53.088;8.850;2023-05-07T05:41:30;13.80;;;7.68;;
67162;SDS011;54092;53.088;8.850;2023-05-07T05:43:55;15.38;;;6.90;;
67162;SDS011;54092;53.088;8.850;2023-05-07T05:46:21;14.80;;;7.35;;
67162;SDS011;54092;53.088;8.850;2023-05-07T05:48:46;13.38;;;7.20;;
67162;SDS011;54092;53.088;8.850;2023-05-07T05:51:12;12.18;;;6.80;;
67162;SDS011;54092;53.088;8.850;2023-05-07T05:53:37;13.15;;;7.75;;
67162;SDS011;54092;53.088;8.850;2023-05-07T05:56:03;14.75;;;7.45;;
67162;SDS011;54092;53.088;8.850;2023-05-07T05:58:29;15.02;;;8.13;;
67162;SDS011;54092;53.088;8.850;2023-05-07T06:00:55;14.15;;;7.32;;
67162;SDS011;54092;53.088;8.850;2023-05-07T06:03:21;15.35;;;8.20;;
67162;SDS011;54092;53.088;8.850;2023-05-07T06:05:47;13.38;;;7.53;;
67162;SDS011;54092;53.088;8.850;2023-05-07T06:08:12;13.93;;;7.68;;
67162;SDS011;54092;53.088;8.850;2023-05-07T06:10:38;12.15;;;6.22;;
67162;SDS011;54092;53.088;8.850;2023-05-07T06:13:04;11.55;;;6.55;;
67162;SDS011;54092;53.088;8.850;2023-05-07T06:15:30;12.10;;;7.63;;
67162;SDS011;54092;53.088;8.850;2023-05-07T06:17:55;10.90;;;6.07;;
67162;SDS011;54092;53.088;8.850;2023-05-07T06:20:22;12.35;;;6.32;;
67162;SDS011;54092;53.088;8.850;2023-05-07T06:22:48;11.98;;;6.93;;
67162;SDS011;54092;53.088;8.850;2023-05-07T06:25:13;13.05;;;6.88;;
67162;SDS011;54092;53.088;8.850;2023-05-07T06:27:39;12.45;;;7.32;;
67162;SDS011;54092;53.088;8.850;2023-05-07T06:30:05;11.55;;;6.70;;
67162;SDS011;54092;53.088;8.850;2023-05-07T06:32:31;10.70;;;6.38;;
67162;SDS011;54092;53.088;8.850;2023-05-07T06:34:57;11.85;;;7.00;;
67162;SDS011;54092;53.088;8.850;2023-05-07T06:37:22;11.50;;;6.95;;
67162;SDS011;54092;53.088;8.850;2023-05-07T06:39:48;12.52;;;6.60;;
67162;SDS011;54092;53.088;8.850;2023-05-07T06:42:13;11.45;;;6.90;;
67162;SDS011;54092;53.088;8.850;2023-05-07T06:44:39;11.88;;;6.80;;
67162;SDS011;54092;53.088;8.850;2023-05-07T06:47:05;11.70;;;6.72;;
67162;SDS011;54092;53.088;8.850;2023-05-07T06:49:30;11.75;;;6.80;;
67162;SDS011;54092;53.088;8.850;2023-05-07T06:51:56;11.82;;;6.80;;
67162;SDS011;54092;53.088;8.850;2023-05-07T06:54:22;11.70;;;6.70;;
67162;SDS011;54092;53.088;8.850;2023-05-07T06:56:48;11.50;;;6.72;;
67162;SDS011;54092;53.088;8.850;2023-05-07T06:59:13;11.80;;;6.90;;
67162;SDS011;54092;53.088;8.850;2023-05-07T07:01:39;12.00;;;6.63;;
67162;SDS011;54092;53.088;8.850;2023-05-07T07:04:05;9.25;;;5.90;;
67162;SDS011;54092;53.088;8.850;2023-05-07T07:06:30;11.93;;;7.00;;
67162;SDS011;54092;53.088;8.850;2023-05-07T07:08:57;9.48;;;6.38;;
67162;SDS011;54092;53.088;8.850;2023-05-07T07:11:23;11.15;;;5.93;;
67162;SDS011;54092;53.088;8.850;2023-05-07T07:13:48;11.30;;;6.30;;
67162;SDS011;54092;53.088;8.850;2023-05-07T07:16:15;10.35;;;6.22;;
67162;SDS011;54092;53.088;8.850;2023-05-07T07:18:41;11.57;;;6.30;;
67162;SDS011;54092;53.088;8.850;2023-05-07T07:21:06;12.38;;;6.70;;
67162;SDS011;54092;53.088;8.850;2023-05-07T07:23:32;10.93;;;6.95;;
67162;SDS011;54092;53.088;8.850;2023-05-07T07:25:57;12.05;;;7.32;;
67162;SDS011;54092;53.088;8.850;2023-05-07T07:28:23;11.80;;;6.50;;
67162;SDS011;54092;53.088;8.850;2023-05-07T07:30:48;11.55;;;6.53;;
67162;SDS011;54092;53.088;8.850;2023-05-07T07:33:14;11.00;;;6.10;;
67162;SDS011;54092;53.088;8.850;2023-05-07T07:35:40;12.25;;;6.18;;
67162;SDS011;54092;53.088;8.850;2023-05-07T07:38:06;12.45;;;6.93;;
67162;SDS011;54092;53.088;8.850;2023-05-07T07:40:34;10.20;;;6.45;;
67162;SDS011;54092;53.088;8.850;2023-05-07T07:43:00;9.63;;;5.93;;
67162;SDS011;54092;53.088;8.850;2023-05-07T07:45:26;12.07;;;6.80;;
67162;SDS011;54092;53.088;8.850;2023-05-07T07:47:51;13.23;;;6.97;;
67162;SDS011;54092;53.088;8.850;2023-05-07T07:50:17;11.52;;;7.10;;
67162;SDS011;54092;53.088;8.850;2023-05-07T07:52:43;11.07;;;6.85;;
67162;SDS011;54092;53.088;8.850;2023-05-07T07:55:09;10.10;;;6.35;;
67162;SDS011;54092;53.088;8.850;2023-05-07T07:57:34;10.23;;;6.32;;
67162;SDS011;54092;53.088;8.850;2023-05-07T08:00:01;10.48;;;6.43;;
67162;SDS011;54092;53.088;8.850;2023-05-07T08:02:27;12.15;;;6.30;;
67162;SDS011;54092;53.088;8.850;2023-05-07T08:04:53;10.85;;;6.45;;
67162;SDS011;54092;53.088;8.850;2023-05-07T08:07:18;10.25;;;5.75;;
67162;SDS011;54092;53.088;8.850;2023-05-07T08:09:45;10.00;;;5.95;;
67162;SDS011;54092;53.088;8.850;2023-05-07T08:12:11;10.25;;;6.30;;
67162;SDS011;54092;53.088;8.850;2023-05-07T08:14:37;8.75;;;5.20;;
67162;SDS011;54092;53.088;8.850;2023-05-07T08:17:03;10.57;;;6.03;;
67162;SDS011;54092;53.088;8.850;2023-05-07T08:19:28;9.32;;;6.13;;
67162;SDS011;54092;53.088;8.850;2023-05-07T08:21:54;9.82;;;5.90;;
67162;SDS011;54092;53.088;8.850;2023-05-07T08:24:20;10.38;;;5.85;;
67162;SDS011;54092;53.088;8.850;2023-05-07T08:26:46;9.45;;;6.00;;
67162;SDS011;54092;53.088;8.850;2023-05-07T08:29:11;8.60;;;5.75;;
67162;SDS011;54092;53.088;8.850;2023-05-07T08:31:37;10.23;;;5.85;;
67162;SDS011;54092;53.088;8.850;2023-05-07T08:34:04;8.73;;;5.50;;
67162;SDS011;54092;53.088;8.850;2023-05-07T08:36:31;9.75;;;5.15;;
67162;SDS011;54092;53.088;8.850;2023-05-07T08:38:57;9.90;;;6.18;;
67162;SDS011;54092;53.088;8.850;2023-05-07T08:41:22;10.05;;;6.50;;
67162;SDS011;54092;53.088;8.850;2023-05-07T08:43:48;10.25;;;5.88;;
67162;SDS011;54092;53.088;8.850;2023-05-07T08:46:20;9.65;;;5.80;;
67162;SDS011;54092;53.088;8.850;2023-05-07T08:48:50;8.32;;;5.38;;
67162;SDS011;54092;53.088;8.850;2023-05-07T08:51:17;11.60;;;6.28;;
67162;SDS011;54092;53.088;8.850;2023-05-07T08:53:44;10.35;;;6.07;;
67162;SDS011;54092;53.088;8.850;2023-05-07T08:56:11;10.95;;;6.13;;
67162;SDS011;54092;53.088;8.850;2023-05-07T08:58:38;9.95;;;5.82;;
67162;SDS011;54092;53.088;8.850;2023-05-07T09:01:07;9.50;;;5.90;;
67162;SDS011;54092;53.088;8.850;2023-05-07T09:03:34;9.63;;;6.20;;
67162;SDS011;54092;53.088;8.850;2023-05-07T09:06:00;10.20;;;6.35;;
67162;SDS011;54092;53.088;8.850;2023-05-07T09:08:26;9.48;;;6.43;;
67162;SDS011;54092;53.088;8.850;2023-05-07T09:10:52;10.75;;;5.85;;
67162;SDS011;54092;53.088;8.850;2023-05-07T09:13:18;10.95;;;5.65;;
67162;SDS011;54092;53.088;8.850;2023-05-07T09:15:44;9.88;;;6.00;;
67162;SDS011;54092;53.088;8.850;2023-05-07T09:18:10;9.68;;;6.13;;
67162;SDS011;54092;53.088;8.850;2023-05-07T09:20:37;9.40;;;5.70;;
67162;SDS011;54092;53.088;8.850;2023-05-07T09:23:02;9.63;;;6.35;;
67162;SDS011;54092;53.088;8.850;2023-05-07T09:25:29;11.02;;;6.55;;
67162;SDS011;54092;53.088;8.850;2023-05-07T09:27:58;9.82;;;5.93;;
67162;SDS011;54092;53.088;8.850;2023-05-07T09:30:28;12.20;;;6.13;;
67162;SDS011;54092;53.088;8.850;2023-05-07T09:32:58;12.13;;;6.22;;
67162;SDS011;54092;53.088;8.850;2023-05-07T09:35:25;11.63;;;6.75;;
67162;SDS011;54092;53.088;8.850;2023-05-07T09:37:57;9.23;;;5.57;;
67162;SDS011;54092;53.088;8.850;2023-05-07T09:40:25;11.07;;;6.50;;
67162;SDS011;54092;53.088;8.850;2023-05-07T09:42:52;12.32;;;6.50;;
67162;SDS011;54092;53.088;8.850;2023-05-07T09:45:22;11.95;;;6.32;;
67162;SDS011;54092;53.088;8.850;2023-05-07T09:47:53;7.97;;;5.43;;
67162;SDS011;54092;53.088;8.850;2023-05-07T09:50:21;12.00;;;7.22;;
67162;SDS011;54092;53.088;8.850;2023-05-07T09:52:54;10.43;;;7.03;;
67162;SDS011;54092;53.088;8.850;2023-05-07T09:55:21;10.23;;;6.15;;
67162;SDS011;54092;53.088;8.850;2023-05-07T09:57:50;11.82;;;6.53;;
67162;SDS011;54092;53.088;8.850;2023-05-07T10:00:18;13.07;;;6.63;;
67162;SDS011;54092;53.088;8.850;2023-05-07T10:02:45;10.25;;;6.53;;
67162;SDS011;54092;53.088;8.850;2023-05-07T10:05:14;10.07;;;6.72;;
67162;SDS011;54092;53.088;8.850;2023-05-07T10:07:40;10.45;;;6.35;;
67162;SDS011;54092;53.088;8.850;2023-05-07T10:10:06;9.70;;;6.20;;
67162;SDS011;54092;53.088;8.850;2023-05-07T10:12:32;10.07;;;6.43;;
67162;SDS011;54092;53.088;8.850;2023-05-07T10:15:04;12.25;;;6.90;;
67162;SDS011;54092;53.088;8.850;2023-05-07T10:17:37;12.05;;;7.00;;
67162;SDS011;54092;53.088;8.850;2023-05-07T10:20:04;11.05;;;6.72;;
67162;SDS011;54092;53.088;8.850;2023-05-07T10:22:31;11.50;;;6.63;;
67162;SDS011;54092;53.088;8.850;2023-05-07T10:25:06;9.57;;;6.35;;
67162;SDS011;54092;53.088;8.850;2023-05-07T10:27:36;11.32;;;6.40;;
67162;SDS011;54092;53.088;8.850;2023-05-07T10:30:08;12.00;;;7.30;;
67162;SDS011;54092;53.088;8.850;2023-05-07T10:32:50;10.77;;;6.68;;
67162;SDS011;54092;53.088;8.850;2023-05-07T10:35:23;10.00;;;6.38;;
67162;SDS011;54092;53.088;8.850;2023-05-07T10:37:51;10.88;;;6.60;;
67162;SDS011;54092;53.088;8.850;2023-05-07T10:40:17;12.07;;;6.75;;
67162;SDS011;54092;53.088;8.850;2023-05-07T10:42:54;10.30;;;6.68;;
67162;SDS011;54092;53.088;8.850;2023-05-07T10:45:28;10.25;;;6.63;;
67162;SDS011;54092;53.088;8.850;2023-05-07T10:48:13;10.95;;;7.03;;
67162;SDS011;54092;53.088;8.850;2023-05-07T10:50:44;12.75;;;7.55;;
67162;SDS011;54092;53.088;8.850;2023-05-07T10:55:42;12.15;;;7.68;;
67162;SDS011;54092;53.088;8.850;2023-05-07T10:58:22;10.30;;;6.95;;
67162;SDS011;54092;53.088;8.850;2023-05-07T11:00:56;12.45;;;7.15;;
67162;SDS011;54092;53.088;8.850;2023-05-07T11:03:23;10.95;;;7.45;;
67162;SDS011;54092;53.088;8.850;2023-05-07T11:06:08;13.18;;;7.40;;
67162;SDS011;54092;53.088;8.850;2023-05-07T11:11:43;11.48;;;7.15;;
67162;SDS011;54092;53.088;8.850;2023-05-07T11:14:11;10.85;;;6.65;;
67162;SDS011;54092;53.088;8.850;2023-05-07T11:16:37;11.80;;;7.03;;
67162;SDS011;54092;53.088;8.850;2023-05-07T11:19:03;12.13;;;6.68;;
67162;SDS011;54092;53.088;8.850;2023-05-07T11:24:01;10.30;;;7.25;;
67162;SDS011;54092;53.088;8.850;2023-05-07T11:26:40;10.82;;;7.28;;
67162;SDS011;54092;53.088;8.850;2023-05-07T11:29:12;11.57;;;6.63;;
67162;SDS011;54092;53.088;8.850;2023-05-07T11:31:48;11.55;;;6.85;;
67162;SDS011;54092;53.088;8.850;2023-05-07T11:34:24;10.05;;;6.55;;
67162;SDS011;54092;53.088;8.850;2023-05-07T11:36:51;12.07;;;6.95;;
67162;SDS011;54092;53.088;8.850;2023-05-07T11:39:27;10.32;;;6.65;;
67162;SDS011;54092;53.088;8.850;2023-05-07T11:41:54;9.95;;;6.32;;
67162;SDS011;54092;53.088;8.850;2023-05-07T11:44:19;9.85;;;6.45;;
67162;SDS011;54092;53.088;8.850;2023-05-07T11:46:45;9.35;;;5.93;;
67162;SDS011;54092;53.088;8.850;2023-05-07T11:49:11;10.10;;;6.97;;
67162;SDS011;54092;53.088;8.850;2023-05-07T11:51:37;11.15;;;6.63;;
67162;SDS011;54092;53.088;8.850;2023-05-07T11:54:04;8.90;;;6.15;;
67162;SDS011;54092;53.088;8.850;2023-05-07T11:56:33;10.60;;;6.45;;
67162;SDS011;54092;53.088;8.850;2023-05-07T11:59:00;10.10;;;6.45;;
67162;SDS011;54092;53.088;8.850;2023-05-07T12:01:26;11.10;;;6.05;;
67162;SDS011;54092;53.088;8.850;2023-05-07T12:03:51;11.07;;;6.60;;
67162;SDS011;54092;53.088;8.850;2023-05-07T12:06:17;10.10;;;6.45;;
67162;SDS011;54092;53.088;8.850;2023-05-07T12:08:44;9.98;;;6.57;;
67162;SDS011;54092;53.088;8.850;2023-05-07T12:11:13;10.70;;;6.88;;
67162;SDS011;54092;53.088;8.850;2023-05-07T12:13:41;10.93;;;6.90;;
67162;SDS011;54092;53.088;8.850;2023-05-07T12:16:06;11.48;;;7.22;;
67162;SDS011;54092;53.088;8.850;2023-05-07T12:18:33;9.85;;;6.45;;
67162;SDS011;54092;53.088;8.850;2023-05-07T12:21:00;10.38;;;6.80;;
67162;SDS011;54092;53.088;8.850;2023-05-07T12:23:26;9.65;;;6.80;;
67162;SDS011;54092;53.088;8.850;2023-05-07T12:25:52;9.55;;;6.38;;
67162;SDS011;54092;53.088;8.850;2023-05-07T12:28:18;9.60;;;6.57;;
67162;SDS011;54092;53.088;8.850;2023-05-07T12:30:45;10.43;;;6.10;;
67162;SDS011;54092;53.088;8.850;2023-05-07T12:33:12;9.48;;;6.93;;
67162;SDS011;54092;53.088;8.850;2023-05-07T12:35:41;12.75;;;7.13;;
67162;SDS011;54092;53.088;8.850;2023-05-07T12:38:12;10.25;;;6.63;;
67162;SDS011;54092;53.088;8.850;2023-05-07T12:40:43;12.05;;;6.78;;
67162;SDS011;54092;53.088;8.850;2023-05-07T12:43:21;12.15;;;7.65;;
67162;SDS011;54092;53.088;8.850;2023-05-07T12:45:51;11.45;;;6.47;;
67162;SDS011;54092;53.088;8.850;2023-05-07T12:48:19;10.43;;;6.27;;
67162;SDS011;54092;53.088;8.850;2023-05-07T12:50:48;8.88;;;6.20;;
67162;SDS011;54092;53.088;8.850;2023-05-07T12:53:22;9.32;;;6.20;;
67162;SDS011;54092;53.088;8.850;2023-05-07T12:55:54;9.90;;;6.53;;
67162;SDS011;54092;53.088;8.850;2023-05-07T13:00:54;9.98;;;6.03;;
67162;SDS011;54092;53.088;8.850;2023-05-07T13:05:53;9.88;;;6.28;;
67162;SDS011;54092;53.088;8.850;2023-05-07T13:08:24;9.35;;;6.40;;
67162;SDS011;54092;53.088;8.850;2023-05-07T13:10:50;10.00;;;6.18;;
67162;SDS011;54092;53.088;8.850;2023-05-07T13:13:16;8.10;;;5.72;;
67162;SDS011;54092;53.088;8.850;2023-05-07T13:15:42;8.38;;;6.05;;
67162;SDS011;54092;53.088;8.850;2023-05-07T13:18:07;8.77;;;6.20;;
67162;SDS011;54092;53.088;8.850;2023-05-07T13:20:35;7.60;;;5.70;;
67162;SDS011;54092;53.088;8.850;2023-05-07T13:23:00;10.65;;;6.50;;
67162;SDS011;54092;53.088;8.850;2023-05-07T13:25:27;10.55;;;6.20;;
67162;SDS011;54092;53.088;8.850;2023-05-07T13:27:52;8.07;;;5.78;;
67162;SDS011;54092;53.088;8.850;2023-05-07T13:30:18;10.02;;;6.03;;
67162;SDS011;54092;53.088;8.850;2023-05-07T13:32:43;8.15;;;5.57;;
67162;SDS011;54092;53.088;8.850;2023-05-07T13:35:10;7.97;;;4.95;;
67162;SDS011;54092;53.088;8.850;2023-05-07T13:37:36;7.90;;;5.18;;
67162;SDS011;54092;53.088;8.850;2023-05-07T13:40:01;8.65;;;5.32;;
67162;SDS011;54092;53.088;8.850;2023-05-07T13:42:27;6.70;;;5.07;;
67162;SDS011;54092;53.088;8.850;2023-05-07T13:44:52;9.05;;;5.75;;
67162;SDS011;54092;53.088;8.850;2023-05-07T13:47:18;8.73;;;6.05;;
67162;SDS011;54092;53.088;8.850;2023-05-07T13:49:43;8.23;;;5.45;;
67162;SDS011;54092;53.088;8.850;2023-05-07T13:52:09;8.07;;;5.43;;
67162;SDS011;54092;53.088;8.850;2023-05-07T13:54:34;7.78;;;5.70;;
67162;SDS011;54092;53.088;8.850;2023-05-07T13:57:00;9.25;;;5.30;;
67162;SDS011;54092;53.088;8.850;2023-05-07T13:59:26;7.72;;;5.30;;
67162;SDS011;54092;53.088;8.850;2023-05-07T14:01:52;7.60;;;5.10;;
67162;SDS011;54092;53.088;8.850;2023-05-07T14:04:17;8.27;;;5.20;;
67162;SDS011;54092;53.088;8.850;2023-05-07T14:06:43;9.30;;;6.15;;
67162;SDS011;54092;53.088;8.850;2023-05-07T14:09:08;7.65;;;5.20;;
67162;SDS011;54092;53.088;8.850;2023-05-07T14:11:37;8.67;;;5.40;;
67162;SDS011;54092;53.088;8.850;2023-05-07T14:14:02;9.52;;;5.93;;
67162;SDS011;54092;53.088;8.850;2023-05-07T14:16:28;9.02;;;6.00;;
67162;SDS011;54092;53.088;8.850;2023-05-07T14:18:53;7.80;;;5.75;;
67162;SDS011;54092;53.088;8.850;2023-05-07T14:21:19;9.25;;;6.70;;
67162;SDS011;54092;53.088;8.850;2023-05-07T14:23:45;9.50;;;5.90;;
67162;SDS011;54092;53.088;8.850;2023-05-07T14:26:10;8.50;;;5.97;;
67162;SDS011;54092;53.088;8.850;2023-05-07T14:28:36;9.35;;;6.18;;
67162;SDS011;54092;53.088;8.850;2023-05-07T14:31:04;9.68;;;6.72;;
67162;SDS011;54092;53.088;8.850;2023-05-07T14:33:30;11.43;;;6.85;;
67162;SDS011;54092;53.088;8.850;2023-05-07T14:35:55;9.90;;;6.60;;
67162;SDS011;54092;53.088;8.850;2023-05-07T14:38:21;9.57;;;6.07;;
67162;SDS011;54092;53.088;8.850;2023-05-07T14:40:46;8.65;;;5.63;;
67162;SDS011;54092;53.088;8.850;2023-05-07T14:43:12;8.10;;;5.40;;